createdAt,value
2017-11-25T14:54:39.003Z,48.47
2017-11-25T14:55:38.888Z,48.38
2017-11-25T14:57:31.846Z,48.28
2017-11-25T14:58:31.736Z,48.38
2017-11-25T15:00:24.570Z,48.18
2017-11-25T15:01:24.492Z,48.28
2017-11-25T15:03:17.434Z,47.99
2017-11-25T15:04:17.345Z,48.28
2017-11-25T15:06:10.694Z,48.28
2017-11-25T15:07:10.600Z,47.99
2017-11-25T15:09:04.439Z,47.99
2017-11-25T15:10:04.332Z,47.89
2017-11-25T15:11:57.726Z,48.18
2017-11-25T15:12:57.650Z,48.18
2017-11-25T15:14:50.501Z,48.18
2017-11-25T15:15:50.391Z,48.08
2017-11-25T15:17:43.222Z,48.18
2017-11-25T15:18:43.136Z,48.18
2017-11-25T15:20:35.983Z,47.89
2017-11-25T15:21:35.910Z,48.08
2017-11-25T15:23:28.929Z,48.28
2017-11-25T15:24:28.835Z,48.38
2017-11-25T15:26:22.481Z,48.28
2017-11-25T15:27:22.307Z,48.18
2017-11-25T15:29:15.143Z,48.28
2017-11-25T15:30:15.062Z,48.35
2017-11-25T15:44:41.057Z,43.93
2017-11-25T15:45:38.946Z,55.80
2017-11-25T15:47:31.094Z,70.70
2017-11-25T15:48:32.299Z,74.66
2017-11-25T15:50:25.045Z,78.89
2017-11-25T15:51:24.636Z,81.17
2017-11-25T15:53:18.575Z,82.55
2017-11-25T15:54:18.429Z,83.22
2017-11-25T15:56:12.706Z,84.55
2017-11-25T15:57:11.832Z,84.45
2017-11-25T15:59:05.853Z,84.74
2017-11-25T16:00:07.536Z,85.49
2017-11-25T16:02:01.038Z,85.49
2017-11-25T16:03:01.349Z,86.54
2017-11-25T16:04:54.771Z,86.16
2017-11-25T16:05:55.762Z,86.63
2017-11-25T16:07:47.479Z,87.01
2017-11-25T16:08:47.190Z,87.01
2017-11-25T16:10:40.329Z,86.72
2017-11-25T16:11:40.671Z,87.30
2017-11-25T16:13:35.186Z,87.20
2017-11-25T16:14:34.998Z,87.20
2017-11-25T16:16:30.412Z,87.20
2017-11-25T16:17:29.745Z,87.20
2017-11-25T16:19:23.225Z,87.77
2017-11-25T16:20:24.013Z,87.77
2017-11-25T16:22:16.260Z,87.77
2017-11-25T16:23:15.916Z,87.58
2017-11-25T16:25:10.591Z,87.58
2017-11-25T16:26:09.226Z,87.39
2017-11-25T16:28:05.139Z,87.58
2017-11-25T16:29:04.490Z,88.15
2017-11-25T16:31:03.406Z,88.15
2017-11-25T16:32:00.701Z,87.87
2017-11-25T16:34:09.936Z,87.87
2017-11-25T16:37:04.040Z,87.96
2017-11-25T16:38:04.646Z,88.24
2017-11-25T16:39:59.296Z,88.15
2017-11-25T16:41:00.324Z,88.81
2017-11-25T16:42:56.628Z,88.48
2017-11-25T16:43:55.080Z,88.48
2017-11-25T17:33:42.764Z,87.25
2017-11-25T17:34:42.591Z,85.64
2017-11-25T17:36:36.244Z,85.45
2017-11-25T17:37:36.712Z,86.49
2017-11-25T17:39:30.257Z,87.25
2017-11-25T17:41:50.916Z,87.92
2017-11-25T17:44:11.227Z,87.82
2017-11-25T17:45:19.570Z,87.92
2017-11-25T17:47:05.085Z,87.63
2017-11-25T17:48:04.985Z,87.92
2017-11-25T17:49:58.612Z,88.29
2017-11-25T17:50:59.040Z,87.73
2017-11-25T17:52:51.075Z,88.58
2017-11-25T17:53:52.456Z,88.58
2017-11-25T17:55:43.637Z,88.58
2017-11-25T17:56:45.147Z,88.29
2017-11-25T17:58:36.028Z,88.29
2017-11-25T18:00:57.300Z,88.29
2017-11-25T18:01:58.581Z,88.29
2017-11-25T18:03:50.361Z,88.20
2017-11-25T18:04:51.233Z,88.68
2017-11-25T18:06:43.720Z,88.68
2017-11-25T18:07:43.104Z,88.58
2017-11-25T18:09:35.966Z,88.48
2017-11-25T18:10:36.131Z,88.68
2017-11-25T18:12:29.222Z,88.58
2017-11-25T18:13:30.104Z,88.58
2017-11-25T18:15:22.933Z,88.48
2017-11-25T18:16:24.167Z,88.58
2017-11-25T18:18:15.834Z,88.58
2017-11-25T18:19:15.815Z,88.48
2017-11-25T18:21:09.003Z,88.68
2017-11-25T18:22:09.502Z,88.87
2017-11-25T18:24:02.250Z,88.96
2017-11-25T18:25:03.233Z,89.15
2017-11-25T18:26:55.704Z,89.06
2017-11-25T18:27:55.525Z,89.15
2017-11-25T18:29:48.046Z,88.58
2017-11-25T18:30:48.573Z,88.58
2017-11-25T18:32:40.590Z,88.87
2017-11-25T18:33:40.626Z,88.77
2017-11-25T18:35:33.095Z,88.96
2017-11-25T18:36:33.683Z,89.15
2017-11-25T18:38:26.016Z,88.96
2017-11-25T18:39:26.552Z,88.96
2017-11-25T18:41:19.782Z,89.06
2017-11-25T18:42:19.568Z,89.25
2017-11-25T18:44:12.336Z,88.96
2017-11-25T18:46:33.364Z,88.96
2017-11-25T18:48:53.973Z,88.87
2017-11-25T18:51:13.292Z,88.96
2017-11-25T18:52:12.796Z,89.06
2017-11-25T18:54:05.793Z,89.15
2017-11-25T18:55:06.586Z,88.87
2017-11-25T18:56:59.255Z,88.96
2017-11-25T18:57:59.965Z,88.96
2017-11-25T18:59:52.276Z,88.87
2017-11-25T19:00:52.498Z,89.15
2017-11-25T19:02:46.527Z,89.15
2017-11-25T19:03:47.358Z,89.15
2017-11-25T19:05:39.714Z,89.15
2017-11-25T19:06:41.328Z,89.15
2017-11-25T19:08:31.976Z,88.96
2017-11-25T19:09:33.892Z,88.96
2017-11-25T19:11:25.916Z,88.96
2017-11-25T19:12:25.260Z,89.15
2017-11-25T19:14:19.058Z,88.96
2017-11-25T19:15:19.355Z,88.96
2017-11-25T19:17:15.766Z,89.15
2017-11-25T19:18:16.196Z,89.15
2017-11-25T19:20:08.432Z,89.15
2017-11-25T19:22:23.575Z,89.06
2017-11-25T19:23:23.068Z,89.25
2017-11-25T19:25:15.676Z,89.15
2017-11-25T19:26:15.764Z,88.87
2017-11-25T19:28:09.616Z,88.96
2017-11-25T19:29:09.263Z,88.96
2017-11-25T19:31:02.424Z,88.96
2017-11-25T19:32:03.005Z,89.15
2017-11-25T19:33:55.442Z,89.15
2017-11-25T19:34:55.257Z,88.77
2017-11-25T19:36:48.941Z,89.06
2017-11-25T19:37:49.091Z,88.87
2017-11-25T19:39:44.267Z,88.87
2017-11-25T19:40:45.112Z,88.87
2017-11-25T19:42:38.180Z,88.96
2017-11-25T19:43:38.197Z,88.96
2017-11-25T19:45:34.389Z,89.25
2017-11-25T19:46:33.671Z,89.34
2017-11-25T19:48:28.665Z,88.92
2017-11-25T19:49:28.218Z,88.77
2017-11-25T19:51:22.900Z,88.77
2017-11-25T19:52:22.919Z,88.96
2017-11-25T19:54:16.948Z,89.06
2017-11-25T19:55:16.268Z,88.73
2017-11-25T19:57:09.606Z,88.73
2017-11-25T19:58:10.558Z,89.06
2017-11-25T20:00:03.256Z,88.77
2017-11-25T20:02:25.042Z,88.87
2017-11-25T20:04:49.933Z,89.29
2017-11-25T20:07:43.242Z,88.73
2017-11-25T20:10:04.491Z,89.06
2017-11-25T20:12:25.454Z,88.82
2017-11-25T20:13:26.351Z,88.82
2017-11-25T20:15:19.589Z,88.92
2017-11-25T20:16:26.886Z,88.82
2017-11-25T20:18:15.558Z,89.01
2017-11-25T20:19:14.520Z,89.39
2017-11-25T20:21:07.234Z,89.48
2017-11-25T20:22:07.304Z,89.20
2017-11-25T20:24:00.593Z,89.48
2017-11-25T20:25:00.278Z,89.48
2017-11-25T20:26:53.038Z,89.58
2017-11-25T20:27:53.303Z,89.48
2017-11-25T20:29:45.633Z,89.48
2017-11-25T20:30:45.577Z,89.67
2017-11-25T20:32:38.155Z,89.58
2017-11-25T20:33:38.235Z,89.67
2017-11-25T20:35:31.034Z,89.58
2017-11-25T20:36:31.479Z,89.48
2017-11-25T20:38:24.273Z,89.67
2017-11-25T20:39:25.133Z,89.48
2017-11-25T20:41:17.097Z,89.58
2017-11-25T20:42:17.122Z,89.48
2017-11-25T20:44:09.768Z,89.58
2017-11-25T20:45:09.935Z,89.58
2017-11-25T20:47:02.792Z,89.48
2017-11-25T20:48:02.898Z,89.58
2017-11-25T20:49:55.993Z,89.48
2017-11-25T20:50:55.619Z,89.48
2017-11-25T20:52:48.190Z,89.48
2017-11-25T20:53:48.494Z,89.48
2017-11-25T20:55:41.424Z,89.48
2017-11-25T20:58:34.162Z,89.48
2017-11-25T20:59:35.144Z,89.48
2017-11-25T21:01:28.656Z,89.29
2017-11-25T21:02:28.410Z,89.39
2017-11-25T21:04:21.572Z,89.39
2017-11-25T21:05:29.628Z,89.39
2017-11-25T21:07:14.412Z,89.67
2017-11-25T21:08:13.812Z,89.48
2017-11-25T21:10:07.601Z,89.29
2017-11-25T21:11:07.507Z,89.29
2017-11-25T21:13:00.331Z,89.58
2017-11-25T21:14:00.111Z,89.67
2017-11-25T21:15:52.594Z,89.39
2017-11-25T21:16:52.490Z,89.20
2017-11-25T21:18:45.713Z,89.39
2017-11-25T21:19:45.984Z,89.20
2017-11-25T21:21:38.291Z,89.39
2017-11-25T21:22:37.818Z,89.20
2017-11-25T21:24:30.749Z,89.29
2017-11-25T21:25:30.347Z,89.48
2017-11-25T21:27:24.832Z,89.39
2017-11-25T21:28:24.290Z,89.39
2017-11-25T21:30:16.952Z,89.39
2017-11-25T21:31:16.731Z,89.39
2017-11-25T21:33:09.773Z,89.58
2017-11-25T21:34:10.188Z,89.48
2017-11-25T21:36:03.141Z,89.48
2017-11-25T21:37:03.260Z,89.29
2017-11-25T21:38:55.833Z,89.58
2017-11-25T21:39:55.888Z,89.58
2017-11-25T21:41:48.555Z,89.29
2017-11-25T21:42:48.018Z,89.20
2017-11-25T21:44:41.843Z,88.44
2017-11-25T21:45:41.893Z,89.01
2017-11-25T21:47:34.663Z,89.67
2017-11-25T21:48:35.624Z,89.39
2017-11-25T21:50:29.141Z,89.58
2017-11-25T21:51:28.456Z,89.48
2017-11-25T21:53:21.601Z,88.92
2017-11-25T21:55:46.205Z,89.01
2017-11-25T21:56:42.890Z,89.39
2017-11-25T21:58:37.265Z,89.67
2017-11-25T21:59:44.015Z,89.58
2017-11-25T22:01:31.556Z,89.48
2017-11-25T22:02:30.760Z,89.48
2017-11-25T22:04:25.085Z,88.54
2017-11-25T22:05:23.387Z,88.73
2017-11-25T22:07:15.928Z,88.92
2017-11-25T22:08:16.431Z,89.01
2017-11-25T22:10:08.119Z,89.29
2017-11-25T22:11:07.701Z,88.82
2017-11-25T22:13:01.644Z,89.11
2017-11-25T22:14:02.033Z,89.01
2017-11-25T22:15:53.934Z,88.92
2017-11-25T22:16:53.763Z,88.82
2017-11-25T22:18:47.210Z,88.92
2017-11-25T22:19:47.704Z,88.73
2017-11-25T22:21:40.314Z,88.82
2017-11-25T22:22:40.613Z,88.92
2017-11-25T22:24:33.665Z,88.82
2017-11-25T22:25:33.185Z,88.73
2017-11-25T22:27:26.415Z,89.11
2017-11-25T22:28:26.049Z,88.92
2017-11-25T22:30:19.521Z,89.11
2017-11-25T22:31:18.912Z,89.20
2017-11-25T22:33:11.456Z,89.01
2017-11-25T22:34:11.645Z,89.11
2017-11-25T22:36:04.105Z,89.01
2017-11-25T22:37:04.326Z,88.92
2017-11-25T22:38:57.134Z,89.11
2017-11-25T22:39:57.078Z,88.82
2017-11-25T22:41:49.849Z,88.92
2017-11-25T22:42:49.663Z,89.01
2017-11-25T22:44:42.286Z,88.82
2017-11-25T22:45:42.392Z,88.82
2017-11-25T22:47:35.081Z,88.92
2017-11-25T22:48:35.231Z,88.92
2017-11-25T22:50:28.490Z,88.92
2017-11-25T22:51:28.597Z,88.73
2017-11-25T22:53:22.087Z,88.82
2017-11-25T22:54:22.648Z,88.73
2017-11-25T22:56:16.007Z,89.11
2017-11-25T22:58:36.244Z,89.20
2017-11-25T22:59:35.827Z,89.20
2017-11-25T23:01:27.016Z,89.20
2017-11-25T23:02:26.965Z,88.54
2017-11-25T23:04:19.653Z,88.73
2017-11-25T23:05:19.594Z,88.82
2017-11-25T23:07:12.091Z,88.92
2017-11-25T23:08:11.867Z,89.01
2017-11-25T23:10:04.850Z,89.29
2017-11-25T23:11:05.089Z,88.73
2017-11-25T23:12:57.644Z,89.01
2017-11-25T23:13:58.883Z,88.82
2017-11-25T23:15:50.485Z,88.82
2017-11-25T23:16:50.710Z,88.92
2017-11-25T23:18:42.821Z,88.82
2017-11-25T23:19:43.009Z,88.82
2017-11-25T23:21:36.342Z,88.54
2017-11-25T23:22:35.933Z,88.82
2017-11-25T23:24:28.590Z,88.82
2017-11-25T23:25:29.475Z,89.01
2017-11-25T23:27:21.797Z,88.92
2017-11-25T23:28:21.791Z,88.92
2017-11-25T23:30:14.183Z,88.92
2017-11-25T23:31:14.115Z,89.01
2017-11-25T23:33:08.159Z,88.82
2017-11-25T23:34:07.779Z,88.92
2017-11-25T23:36:01.289Z,89.11
2017-11-25T23:37:00.538Z,88.82
2017-11-25T23:38:53.656Z,88.92
2017-11-25T23:39:53.218Z,88.92
2017-11-25T23:41:46.143Z,89.01
2017-11-25T23:42:45.715Z,89.01
2017-11-25T23:44:38.662Z,89.11
2017-11-25T23:45:38.482Z,88.82
2017-11-25T23:47:31.144Z,89.01
2017-11-25T23:48:31.786Z,88.82
2017-11-25T23:50:23.875Z,88.73
2017-11-25T23:51:24.299Z,88.73
2017-11-25T23:53:17.364Z,88.82
2017-11-25T23:54:17.574Z,88.82
2017-11-25T23:56:11.576Z,89.01
2017-11-25T23:57:12.269Z,89.01
2017-11-25T23:59:04.256Z,89.20
